sensor_id;sensor_type;location;lat;lon;timestamp;temperature;humidity
22968;DHT22;11650;48.106;-1.696;2023-03-07T00:00:48;6.20;99.90
22968;DHT22;11650;48.106;-1.696;2023-03-07T00:03:16;6.20;99.90
22968;DHT22;11650;48.106;-1.696;2023-03-07T00:05:42;6.20;99.90
22968;DHT22;11650;48.106;-1.696;2023-03-07T00:08:08;6.20;99.90
22968;DHT22;11650;48.106;-1.696;2023-03-07T00:10:34;6.20;99.90
22968;DHT22;11650;48.106;-1.696;2023-03-07T00:13:00;6.20;99.90
22968;DHT22;11650;48.106;-1.696;2023-03-07T00:15:25;6.20;99.90
22968;DHT22;11650;48.106;-1.696;2023-03-07T00:17:51;6.20;99.90
22968;DHT22;11650;48.106;-1.696;2023-03-07T00:20:17;6.20;99.90
22968;DHT22;11650;48.106;-1.696;2023-03-07T00:22:43;6.20;99.90
22968;DHT22;11650;48.106;-1.696;2023-03-07T00:25:11;6.20;99.90
22968;DHT22;11650;48.106;-1.696;2023-03-07T00:27:37;6.20;99.90
22968;DHT22;11650;48.106;-1.696;2023-03-07T00:30:03;6.20;99.90
22968;DHT22;11650;48.106;-1.696;2023-03-07T00:32:29;6.20;99.90
22968;DHT22;11650;48.106;-1.696;2023-03-07T00:34:55;6.20;99.90
22968;DHT22;11650;48.106;-1.696;2023-03-07T00:37:22;6.10;99.90
22968;DHT22;11650;48.106;-1.696;2023-03-07T00:39:47;6.10;99.90
22968;DHT22;11650;48.106;-1.696;2023-03-07T00:42:14;6.10;99.90
22968;DHT22;11650;48.106;-1.696;2023-03-07T00:44:39;6.10;99.90
22968;DHT22;11650;48.106;-1.696;2023-03-07T00:47:05;6.10;99.90
22968;DHT22;11650;48.106;-1.696;2023-03-07T00:49:31;6.10;99.90
22968;DHT22;11650;48.106;-1.696;2023-03-07T00:51:57;6.10;99.90
22968;DHT22;11650;48.106;-1.696;2023-03-07T00:54:22;6.20;99.90
22968;DHT22;11650;48.106;-1.696;2023-03-07T00:56:48;6.10;99.90
22968;DHT22;11650;48.106;-1.696;2023-03-07T00:59:14;6.20;99.90
22968;DHT22;11650;48.106;-1.696;2023-03-07T01:01:39;6.10;99.90
22968;DHT22;11650;48.106;-1.696;2023-03-07T01:04:05;6.10;99.90
22968;DHT22;11650;48.106;-1.696;2023-03-07T01:06:32;6.10;99.90
22968;DHT22;11650;48.106;-1.696;2023-03-07T01:09:00;6.10;99.90
22968;DHT22;11650;48.106;-1.696;2023-03-07T01:11:27;6.10;99.90
22968;DHT22;11650;48.106;-1.696;2023-03-07T01:13:58;6.10;99.90
22968;DHT22;11650;48.106;-1.696;2023-03-07T01:16:29;6.10;99.90
22968;DHT22;11650;48.106;-1.696;2023-03-07T01:18:57;6.10;99.90
22968;DHT22;11650;48.106;-1.696;2023-03-07T01:23:50;6.10;99.90
22968;DHT22;11650;48.106;-1.696;2023-03-07T01:26:19;6.00;99.90
22968;DHT22;11650;48.106;-1.696;2023-03-07T01:28:45;6.10;99.90
22968;DHT22;11650;48.106;-1.696;2023-03-07T01:31:11;6.00;99.90
22968;DHT22;11650;48.106;-1.696;2023-03-07T01:33:37;6.00;99.90
22968;DHT22;11650;48.106;-1.696;2023-03-07T01:36:03;6.00;99.90
22968;DHT22;11650;48.106;-1.696;2023-03-07T01:38:29;6.00;99.90
22968;DHT22;11650;48.106;-1.696;2023-03-07T01:40:59;6.00;99.90
22968;DHT22;11650;48.106;-1.696;2023-03-07T01:43:31;6.00;99.90
22968;DHT22;11650;48.106;-1.696;2023-03-07T01:48:43;6.00;99.90
22968;DHT22;11650;48.106;-1.696;2023-03-07T01:51:09;6.00;99.90
22968;DHT22;11650;48.106;-1.696;2023-03-07T01:53:35;6.00;99.90
22968;DHT22;11650;48.106;-1.696;2023-03-07T01:56:01;5.90;99.90
22968;DHT22;11650;48.106;-1.696;2023-03-07T01:58:27;6.00;99.90
22968;DHT22;11650;48.106;-1.696;2023-03-07T02:00:52;5.90;99.90
22968;DHT22;11650;48.106;-1.696;2023-03-07T02:03:29;5.90;99.90
22968;DHT22;11650;48.106;-1.696;2023-03-07T02:06:00;5.90;99.90
22968;DHT22;11650;48.106;-1.696;2023-03-07T02:08:28;5.90;99.90
22968;DHT22;11650;48.106;-1.696;2023-03-07T02:10:54;6.00;99.90
22968;DHT22;11650;48.106;-1.696;2023-03-07T02:13:20;6.00;99.90
22968;DHT22;11650;48.106;-1.696;2023-03-07T02:15:46;6.00;99.90
22968;DHT22;11650;48.106;-1.696;2023-03-07T02:18:15;6.00;99.90
22968;DHT22;11650;48.106;-1.696;2023-03-07T02:28:56;6.00;99.90
22968;DHT22;11650;48.106;-1.696;2023-03-07T02:31:22;6.00;99.90
22968;DHT22;11650;48.106;-1.696;2023-03-07T02:33:48;6.00;99.90
22968;DHT22;11650;48.106;-1.696;2023-03-07T02:36:34;6.00;99.90
22968;DHT22;11650;48.106;-1.696;2023-03-07T02:39:01;6.00;99.90
22968;DHT22;11650;48.106;-1.696;2023-03-07T02:41:31;6.00;99.90
22968;DHT22;11650;48.106;-1.696;2023-03-07T02:43:58;6.10;99.90
22968;DHT22;11650;48.106;-1.696;2023-03-07T02:46:24;6.10;99.90
22968;DHT22;11650;48.106;-1.696;2023-03-07T02:48:50;6.00;99.90
22968;DHT22;11650;48.106;-1.696;2023-03-07T02:51:15;6.10;99.90
22968;DHT22;11650;48.106;-1.696;2023-03-07T02:53:41;6.00;99.90
22968;DHT22;11650;48.106;-1.696;2023-03-07T02:56:07;6.10;99.90
22968;DHT22;11650;48.106;-1.696;2023-03-07T02:58:33;6.10;99.90
22968;DHT22;11650;48.106;-1.696;2023-03-07T03:00:59;6.10;99.90
22968;DHT22;11650;48.106;-1.696;2023-03-07T03:03:24;6.10;99.90
22968;DHT22;11650;48.106;-1.696;2023-03-07T03:05:50;6.10;99.90
22968;DHT22;11650;48.106;-1.696;2023-03-07T03:08:16;6.10;99.90
22968;DHT22;11650;48.106;-1.696;2023-03-07T03:10:41;6.10;99.90
22968;DHT22;11650;48.106;-1.696;2023-03-07T03:13:07;6.10;99.90
22968;DHT22;11650;48.106;-1.696;2023-03-07T03:15:33;6.10;99.90
22968;DHT22;11650;48.106;-1.696;2023-03-07T03:17:59;6.10;99.90
22968;DHT22;11650;48.106;-1.696;2023-03-07T03:20:24;6.10;99.90
22968;DHT22;11650;48.106;-1.696;2023-03-07T03:22:51;6.00;99.90
22968;DHT22;11650;48.106;-1.696;2023-03-07T03:25:17;6.10;99.90
22968;DHT22;11650;48.106;-1.696;2023-03-07T03:27:45;6.00;99.90
22968;DHT22;11650;48.106;-1.696;2023-03-07T03:30:12;6.00;99.90
22968;DHT22;11650;48.106;-1.696;2023-03-07T03:32:39;6.10;99.90
22968;DHT22;11650;48.106;-1.696;2023-03-07T03:35:05;6.10;99.90
22968;DHT22;11650;48.106;-1.696;2023-03-07T03:37:31;6.00;99.90
22968;DHT22;11650;48.106;-1.696;2023-03-07T03:39:57;6.00;99.90
22968;DHT22;11650;48.106;-1.696;2023-03-07T03:42:23;6.00;99.90
22968;DHT22;11650;48.106;-1.696;2023-03-07T03:44:49;6.00;99.90
22968;DHT22;11650;48.106;-1.696;2023-03-07T03:47:15;6.00;99.90
22968;DHT22;11650;48.106;-1.696;2023-03-07T03:49:40;6.00;99.90
22968;DHT22;11650;48.106;-1.696;2023-03-07T03:52:06;5.90;99.90
22968;DHT22;11650;48.106;-1.696;2023-03-07T03:54:32;5.90;99.90
22968;DHT22;11650;48.106;-1.696;2023-03-07T03:56:58;5.90;99.90
22968;DHT22;11650;48.106;-1.696;2023-03-07T03:59:23;5.90;99.90
22968;DHT22;11650;48.106;-1.696;2023-03-07T04:01:49;5.90;99.90
22968;DHT22;11650;48.106;-1.696;2023-03-07T04:04:15;5.90;99.90
22968;DHT22;11650;48.106;-1.696;2023-03-07T04:06:41;5.90;99.90
22968;DHT22;11650;48.106;-1.696;2023-03-07T04:09:08;5.90;99.90
22968;DHT22;11650;48.106;-1.696;2023-03-07T04:11:34;5.90;99.90
22968;DHT22;11650;48.106;-1.696;2023-03-07T04:14:00;5.80;99.90
22968;DHT22;11650;48.106;-1.696;2023-03-07T04:16:26;5.90;99.90
22968;DHT22;11650;48.106;-1.696;2023-03-07T04:18:52;5.80;99.90
22968;DHT22;11650;48.106;-1.696;2023-03-07T04:21:19;5.90;99.90
22968;DHT22;11650;48.106;-1.696;2023-03-07T04:23:45;5.90;99.90
22968;DHT22;11650;48.106;-1.696;2023-03-07T04:26:11;5.90;99.90
22968;DHT22;11650;48.106;-1.696;2023-03-07T04:28:39;5.80;99.90
22968;DHT22;11650;48.106;-1.696;2023-03-07T04:31:14;5.80;99.90
22968;DHT22;11650;48.106;-1.696;2023-03-07T04:33:40;5.80;99.90
22968;DHT22;11650;48.106;-1.696;2023-03-07T04:36:06;5.80;99.90
22968;DHT22;11650;48.106;-1.696;2023-03-07T04:38:32;5.80;99.90
22968;DHT22;11650;48.106;-1.696;2023-03-07T04:40:58;5.80;99.90
22968;DHT22;11650;48.106;-1.696;2023-03-07T04:43:24;5.80;99.90
22968;DHT22;11650;48.106;-1.696;2023-03-07T04:45:51;5.90;99.90
22968;DHT22;11650;48.106;-1.696;2023-03-07T04:48:17;5.90;99.90
22968;DHT22;11650;48.106;-1.696;2023-03-07T04:50:43;5.80;99.90
22968;DHT22;11650;48.106;-1.696;2023-03-07T04:53:09;5.80;99.90
22968;DHT22;11650;48.106;-1.696;2023-03-07T04:55:34;5.80;99.90
22968;DHT22;11650;48.106;-1.696;2023-03-07T04:58:00;5.80;99.90
22968;DHT22;11650;48.106;-1.696;2023-03-07T05:00:26;5.80;99.90
22968;DHT22;11650;48.106;-1.696;2023-03-07T05:02:55;5.90;99.90
22968;DHT22;11650;48.106;-1.696;2023-03-07T05:05:21;5.90;99.90
22968;DHT22;11650;48.106;-1.696;2023-03-07T05:07:46;5.80;99.90
22968;DHT22;11650;48.106;-1.696;2023-03-07T05:10:12;5.80;99.90
22968;DHT22;11650;48.106;-1.696;2023-03-07T05:12:37;5.90;99.90
22968;DHT22;11650;48.106;-1.696;2023-03-07T05:15:03;5.90;99.90
22968;DHT22;11650;48.106;-1.696;2023-03-07T05:17:29;5.80;99.90
22968;DHT22;11650;48.106;-1.696;2023-03-07T05:19:55;5.90;99.90
22968;DHT22;11650;48.106;-1.696;2023-03-07T05:22:21;5.90;99.90
22968;DHT22;11650;48.106;-1.696;2023-03-07T05:24:47;5.80;99.90
22968;DHT22;11650;48.106;-1.696;2023-03-07T05:27:13;5.80;99.90
22968;DHT22;11650;48.106;-1.696;2023-03-07T05:29:40;5.80;99.90
22968;DHT22;11650;48.106;-1.696;2023-03-07T05:32:06;5.80;99.90
22968;DHT22;11650;48.106;-1.696;2023-03-07T05:34:32;5.80;99.90
22968;DHT22;11650;48.106;-1.696;2023-03-07T05:36:57;5.80;99.90
22968;DHT22;11650;48.106;-1.696;2023-03-07T05:39:24;5.80;99.90
22968;DHT22;11650;48.106;-1.696;2023-03-07T05:41:51;5.80;99.90
22968;DHT22;11650;48.106;-1.696;2023-03-07T05:44:18;5.80;99.90
22968;DHT22;11650;48.106;-1.696;2023-03-07T05:46:44;5.80;99.90
22968;DHT22;11650;48.106;-1.696;2023-03-07T05:49:09;5.80;99.90
22968;DHT22;11650;48.106;-1.696;2023-03-07T05:51:35;5.70;99.90
22968;DHT22;11650;48.106;-1.696;2023-03-07T05:54:01;5.70;99.90
22968;DHT22;11650;48.106;-1.696;2023-03-07T05:56:26;5.80;99.90
22968;DHT22;11650;48.106;-1.696;2023-03-07T05:58:52;5.80;99.90
22968;DHT22;11650;48.106;-1.696;2023-03-07T06:01:17;5.80;99.90
22968;DHT22;11650;48.106;-1.696;2023-03-07T06:03:43;5.80;99.90
22968;DHT22;11650;48.106;-1.696;2023-03-07T06:06:09;5.80;99.90
22968;DHT22;11650;48.106;-1.696;2023-03-07T06:08:36;5.80;99.90
22968;DHT22;11650;48.106;-1.696;2023-03-07T06:11:02;5.80;99.90
22968;DHT22;11650;48.106;-1.696;2023-03-07T06:13:28;5.80;99.90
22968;DHT22;11650;48.106;-1.696;2023-03-07T06:15:56;5.80;99.90
22968;DHT22;11650;48.106;-1.696;2023-03-07T06:18:23;5.80;99.90
22968;DHT22;11650;48.106;-1.696;2023-03-07T06:20:58;5.80;99.90
22968;DHT22;11650;48.106;-1.696;2023-03-07T06:23:28;5.80;99.90
22968;DHT22;11650;48.106;-1.696;2023-03-07T06:25:54;5.80;99.90
22968;DHT22;11650;48.106;-1.696;2023-03-07T06:28:20;5.80;99.90
22968;DHT22;11650;48.106;-1.696;2023-03-07T06:30:46;5.80;99.90
22968;DHT22;11650;48.106;-1.696;2023-03-07T06:33:12;5.90;99.90
22968;DHT22;11650;48.106;-1.696;2023-03-07T06:35:38;5.90;99.90
22968;DHT22;11650;48.106;-1.696;2023-03-07T06:38:05;5.80;99.90
22968;DHT22;11650;48.106;-1.696;2023-03-07T06:40:30;5.90;99.90
22968;DHT22;11650;48.106;-1.696;2023-03-07T06:42:56;5.90;99.90
22968;DHT22;11650;48.106;-1.696;2023-03-07T06:45:22;5.90;99.90
22968;DHT22;11650;48.106;-1.696;2023-03-07T06:47:47;5.90;99.90
22968;DHT22;11650;48.106;-1.696;2023-03-07T06:50:13;5.90;99.90
22968;DHT22;11650;48.106;-1.696;2023-03-07T06:52:39;6.00;99.90
22968;DHT22;11650;48.106;-1.696;2023-03-07T06:55:06;6.00;99.90
22968;DHT22;11650;48.106;-1.696;2023-03-07T06:57:32;6.00;99.90
22968;DHT22;11650;48.106;-1.696;2023-03-07T06:59:59;6.00;99.90
22968;DHT22;11650;48.106;-1.696;2023-03-07T07:02:25;6.10;99.90
22968;DHT22;11650;48.106;-1.696;2023-03-07T07:04:51;6.10;99.90
22968;DHT22;11650;48.106;-1.696;2023-03-07T07:07:16;6.10;99.90
22968;DHT22;11650;48.106;-1.696;2023-03-07T07:09:42;6.10;99.90
22968;DHT22;11650;48.106;-1.696;2023-03-07T07:12:08;6.10;99.90
22968;DHT22;11650;48.106;-1.696;2023-03-07T07:14:33;6.10;99.90
22968;DHT22;11650;48.106;-1.696;2023-03-07T07:16:59;6.10;99.90
22968;DHT22;11650;48.106;-1.696;2023-03-07T07:19:26;6.10;99.90
22968;DHT22;11650;48.106;-1.696;2023-03-07T07:21:52;6.10;99.90
22968;DHT22;11650;48.106;-1.696;2023-03-07T07:24:18;6.10;99.90
22968;DHT22;11650;48.106;-1.696;2023-03-07T07:26:44;6.10;99.90
22968;DHT22;11650;48.106;-1.696;2023-03-07T07:29:10;6.10;99.90
22968;DHT22;11650;48.106;-1.696;2023-03-07T07:31:36;6.10;99.90
22968;DHT22;11650;48.106;-1.696;2023-03-07T07:34:02;6.10;99.90
22968;DHT22;11650;48.106;-1.696;2023-03-07T07:36:28;6.20;99.90
22968;DHT22;11650;48.106;-1.696;2023-03-07T07:38:54;6.20;99.90
22968;DHT22;11650;48.106;-1.696;2023-03-07T07:41:19;6.10;99.90
22968;DHT22;11650;48.106;-1.696;2023-03-07T07:43:45;6.20;99.90
22968;DHT22;11650;48.106;-1.696;2023-03-07T07:46:13;6.20;99.90
22968;DHT22;11650;48.106;-1.696;2023-03-07T07:48:38;6.20;99.90
22968;DHT22;11650;48.106;-1.696;2023-03-07T07:51:04;6.30;99.90
22968;DHT22;11650;48.106;-1.696;2023-03-07T07:53:30;6.20;99.90
22968;DHT22;11650;48.106;-1.696;2023-03-07T07:55:56;6.20;99.90
22968;DHT22;11650;48.106;-1.696;2023-03-07T07:58:22;6.20;99.90
22968;DHT22;11650;48.106;-1.696;2023-03-07T08:00:48;6.30;99.90
22968;DHT22;11650;48.106;-1.696;2023-03-07T08:03:14;6.30;99.90
22968;DHT22;11650;48.106;-1.696;2023-03-07T08:05:44;6.30;99.90
22968;DHT22;11650;48.106;-1.696;2023-03-07T08:08:10;6.30;99.90
22968;DHT22;11650;48.106;-1.696;2023-03-07T08:10:35;6.40;99.90
22968;DHT22;11650;48.106;-1.696;2023-03-07T08:13:01;6.40;99.90
22968;DHT22;11650;48.106;-1.696;2023-03-07T08:15:27;6.50;99.90
22968;DHT22;11650;48.106;-1.696;2023-03-07T08:17:53;6.50;99.90
22968;DHT22;11650;48.106;-1.696;2023-03-07T08:20:19;6.50;99.90
22968;DHT22;11650;48.106;-1.696;2023-03-07T08:22:48;6.50;99.90
22968;DHT22;11650;48.106;-1.696;2023-03-07T08:25:17;6.60;99.90
22968;DHT22;11650;48.106;-1.696;2023-03-07T08:27:44;6.70;99.90
22968;DHT22;11650;48.106;-1.696;2023-03-07T08:30:11;6.70;99.90
22968;DHT22;11650;48.106;-1.696;2023-03-07T08:32:37;6.70;99.90
22968;DHT22;11650;48.106;-1.696;2023-03-07T08:35:03;6.90;99.90
22968;DHT22;11650;48.106;-1.696;2023-03-07T08:37:29;6.90;99.90
22968;DHT22;11650;48.106;-1.696;2023-03-07T08:39:54;6.90;99.90
22968;DHT22;11650;48.106;-1.696;2023-03-07T08:42:20;6.90;99.90
22968;DHT22;11650;48.106;-1.696;2023-03-07T08:44:45;7.00;99.90
22968;DHT22;11650;48.106;-1.696;2023-03-07T08:47:11;7.00;99.90
22968;DHT22;11650;48.106;-1.696;2023-03-07T08:49:38;7.10;99.90
22968;DHT22;11650;48.106;-1.696;2023-03-07T08:52:04;7.20;99.90
22968;DHT22;11650;48.106;-1.696;2023-03-07T08:54:30;7.20;99.90
22968;DHT22;11650;48.106;-1.696;2023-03-07T08:56:57;7.40;99.90
22968;DHT22;11650;48.106;-1.696;2023-03-07T08:59:23;7.40;99.90
22968;DHT22;11650;48.106;-1.696;2023-03-07T09:01:48;7.40;99.90
22968;DHT22;11650;48.106;-1.696;2023-03-07T09:04:14;7.50;99.90
22968;DHT22;11650;48.106;-1.696;2023-03-07T09:06:40;7.50;99.90
22968;DHT22;11650;48.106;-1.696;2023-03-07T09:09:05;7.70;99.90
22968;DHT22;11650;48.106;-1.696;2023-03-07T09:11:31;7.70;99.90
22968;DHT22;11650;48.106;-1.696;2023-03-07T09:13:57;7.70;99.90
22968;DHT22;11650;48.106;-1.696;2023-03-07T09:16:22;7.70;99.90
22968;DHT22;11650;48.106;-1.696;2023-03-07T09:18:49;7.80;99.90
22968;DHT22;11650;48.106;-1.696;2023-03-07T09:21:14;7.80;99.90
22968;DHT22;11650;48.106;-1.696;2023-03-07T09:23:42;7.80;99.90
22968;DHT22;11650;48.106;-1.696;2023-03-07T09:26:08;7.80;99.90
22968;DHT22;11650;48.106;-1.696;2023-03-07T09:28:34;7.80;99.90
22968;DHT22;11650;48.106;-1.696;2023-03-07T09:31:09;7.90;99.90
22968;DHT22;11650;48.106;-1.696;2023-03-07T09:33:35;7.90;99.90
22968;DHT22;11650;48.106;-1.696;2023-03-07T09:36:06;8.00;99.90
22968;DHT22;11650;48.106;-1.696;2023-03-07T09:38:33;8.00;99.90
22968;DHT22;11650;48.106;-1.696;2023-03-07T09:43:42;8.00;99.90
22968;DHT22;11650;48.106;-1.696;2023-03-07T09:51:37;8.00;99.90
22968;DHT22;11650;48.106;-1.696;2023-03-07T09:54:18;7.90;99.90
22968;DHT22;11650;48.106;-1.696;2023-03-07T09:56:56;8.10;99.90
22968;DHT22;11650;48.106;-1.696;2023-03-07T09:59:41;8.40;99.90
22968;DHT22;11650;48.106;-1.696;2023-03-07T10:04:58;9.00;99.90
22968;DHT22;11650;48.106;-1.696;2023-03-07T10:07:25;9.10;99.90
22968;DHT22;11650;48.106;-1.696;2023-03-07T10:09:56;9.30;99.90
22968;DHT22;11650;48.106;-1.696;2023-03-07T10:22:58;9.90;99.90
22968;DHT22;11650;48.106;-1.696;2023-03-07T10:25:28;9.90;99.90
22968;DHT22;11650;48.106;-1.696;2023-03-07T10:28:27;10.00;99.90
22968;DHT22;11650;48.106;-1.696;2023-03-07T10:31:00;9.90;99.90
22968;DHT22;11650;48.106;-1.696;2023-03-07T10:33:28;9.80;99.90
22968;DHT22;11650;48.106;-1.696;2023-03-07T10:39:03;9.70;99.90
22968;DHT22;11650;48.106;-1.696;2023-03-07T10:41:30;9.70;99.90
22968;DHT22;11650;48.106;-1.696;2023-03-07T10:43:56;9.60;99.90
22968;DHT22;11650;48.106;-1.696;2023-03-07T10:46:27;9.60;99.90
22968;DHT22;11650;48.106;-1.696;2023-03-07T10:49:21;9.80;99.90
22968;DHT22;11650;48.106;-1.696;2023-03-07T10:54:51;9.80;99.90
22968;DHT22;11650;48.106;-1.696;2023-03-07T10:57:18;9.90;99.90
22968;DHT22;11650;48.106;-1.696;2023-03-07T10:59:50;10.10;99.90
22968;DHT22;11650;48.106;-1.696;2023-03-07T11:04:53;10.10;99.90
22968;DHT22;11650;48.106;-1.696;2023-03-07T11:07:26;10.20;99.90
22968;DHT22;11650;48.106;-1.696;2023-03-07T11:09:53;10.00;99.90
22968;DHT22;11650;48.106;-1.696;2023-03-07T11:12:21;10.10;99.90
22968;DHT22;11650;48.106;-1.696;2023-03-07T11:14:52;10.20;99.90
22968;DHT22;11650;48.106;-1.696;2023-03-07T11:17:40;10.40;99.90
22968;DHT22;11650;48.106;-1.696;2023-03-07T11:20:48;10.40;99.90
22968;DHT22;11650;48.106;-1.696;2023-03-07T11:23:20;10.60;99.90
22968;DHT22;11650;48.106;-1.696;2023-03-07T11:25:52;10.80;99.90
22968;DHT22;11650;48.106;-1.696;2023-03-07T11:28:31;10.90;99.90
22968;DHT22;11650;48.106;-1.696;2023-03-07T11:36:39;10.70;99.90
22968;DHT22;11650;48.106;-1.696;2023-03-07T11:42:32;10.50;99.90
22968;DHT22;11650;48.106;-1.696;2023-03-07T11:48:13;10.50;99.90
22968;DHT22;11650;48.106;-1.696;2023-03-07T11:50:53;10.40;99.90
22968;DHT22;11650;48.106;-1.696;2023-03-07T11:56:32;10.40;99.90
22968;DHT22;11650;48.106;-1.696;2023-03-07T12:04:32;10.80;99.90
22968;DHT22;11650;48.106;-1.696;2023-03-07T12:07:26;11.10;99.90
22968;DHT22;11650;48.106;-1.696;2023-03-07T12:25:46;10.70;99.90
22968;DHT22;11650;48.106;-1.696;2023-03-07T12:28:41;10.70;99.90
22968;DHT22;11650;48.106;-1.696;2023-03-07T12:34:10;10.50;99.90
22968;DHT22;11650;48.106;-1.696;2023-03-07T12:36:54;10.50;99.90
22968;DHT22;11650;48.106;-1.696;2023-03-07T12:39:54;10.60;99.90
22968;DHT22;11650;48.106;-1.696;2023-03-07T12:45:15;10.50;99.90
22968;DHT22;11650;48.106;-1.696;2023-03-07T12:50:47;10.80;99.90
22968;DHT22;11650;48.106;-1.696;2023-03-07T12:56:04;10.60;99.90
22968;DHT22;11650;48.106;-1.696;2023-03-07T12:58:45;10.50;99.90
22968;DHT22;11650;48.106;-1.696;2023-03-07T13:06:25;10.30;99.90
22968;DHT22;11650;48.106;-1.696;2023-03-07T13:08:54;10.10;99.90
22968;DHT22;11650;48.106;-1.696;2023-03-07T13:11:26;10.10;99.90
22968;DHT22;11650;48.106;-1.696;2023-03-07T13:13:56;10.10;99.90
22968;DHT22;11650;48.106;-1.696;2023-03-07T13:21:55;10.50;99.90
22968;DHT22;11650;48.106;-1.696;2023-03-07T13:24:40;10.50;99.90
22968;DHT22;11650;48.106;-1.696;2023-03-07T13:27:30;10.70;99.90
22968;DHT22;11650;48.106;-1.696;2023-03-07T13:45:58;10.60;99.90
22968;DHT22;11650;48.106;-1.696;2023-03-07T14:01:11;10.20;99.90
22968;DHT22;11650;48.106;-1.696;2023-03-07T14:06:39;10.30;99.90
22968;DHT22;11650;48.106;-1.696;2023-03-07T14:09:06;10.30;99.90
22968;DHT22;11650;48.106;-1.696;2023-03-07T14:14:57;10.30;99.90
22968;DHT22;11650;48.106;-1.696;2023-03-07T14:20:07;10.20;99.90
22968;DHT22;11650;48.106;-1.696;2023-03-07T14:25:26;10.10;99.90
22968;DHT22;11650;48.106;-1.696;2023-03-07T14:27:57;10.00;99.90
22968;DHT22;11650;48.106;-1.696;2023-03-07T14:30:26;10.00;99.90
22968;DHT22;11650;48.106;-1.696;2023-03-07T14:32:52;10.00;99.90
22968;DHT22;11650;48.106;-1.696;2023-03-07T14:35:39;10.00;99.90
22968;DHT22;11650;48.106;-1.696;2023-03-07T14:38:27;9.90;99.90
22968;DHT22;11650;48.106;-1.696;2023-03-07T14:46:54;9.70;99.90
22968;DHT22;11650;48.106;-1.696;2023-03-07T14:52:16;9.70;99.90
22968;DHT22;11650;48.106;-1.696;2023-03-07T14:54:45;9.90;99.90
22968;DHT22;11650;48.106;-1.696;2023-03-07T14:57:22;9.90;99.90
22968;DHT22;11650;48.106;-1.696;2023-03-07T15:03:02;9.80;99.90
22968;DHT22;11650;48.106;-1.696;2023-03-07T15:08:03;9.90;99.90
22968;DHT22;11650;48.106;-1.696;2023-03-07T15:10:43;9.90;99.90
22968;DHT22;11650;48.106;-1.696;2023-03-07T15:13:20;9.80;99.90
22968;DHT22;11650;48.106;-1.696;2023-03-07T15:15:53;9.90;99.90
22968;DHT22;11650;48.106;-1.696;2023-03-07T15:18:39;9.80;99.90
22968;DHT22;11650;48.106;-1.696;2023-03-07T15:21:07;9.80;99.90
22968;DHT22;11650;48.106;-1.696;2023-03-07T15:23:34;9.80;99.90
22968;DHT22;11650;48.106;-1.696;2023-03-07T15:26:02;9.80;99.90
22968;DHT22;11650;48.106;-1.696;2023-03-07T15:28:36;9.80;99.90
22968;DHT22;11650;48.106;-1.696;2023-03-07T15:31:05;9.90;99.90
22968;DHT22;11650;48.106;-1.696;2023-03-07T15:33:33;10.00;99.90
22968;DHT22;11650;48.106;-1.696;2023-03-07T15:38:38;10.10;99.90
22968;DHT22;11650;48.106;-1.696;2023-03-07T15:41:40;10.10;99.90
22968;DHT22;11650;48.106;-1.696;2023-03-07T15:46:43;9.90;99.90
22968;DHT22;11650;48.106;-1.696;2023-03-07T15:49:43;9.90;99.90
22968;DHT22;11650;48.106;-1.696;2023-03-07T15:52:34;10.00;99.90
22968;DHT22;11650;48.106;-1.696;2023-03-07T15:55:04;10.00;99.90
22968;DHT22;11650;48.106;-1.696;2023-03-07T15:57:39;10.00;99.90
22968;DHT22;11650;48.106;-1.696;2023-03-07T16:00:19;10.00;99.90
22968;DHT22;11650;48.106;-1.696;2023-03-07T16:02:47;10.10;99.90
22968;DHT22;11650;48.106;-1.696;2023-03-07T16:07:46;10.20;99.90
22968;DHT22;11650;48.106;-1.696;2023-03-07T16:10:13;10.10;99.90
22968;DHT22;11650;48.106;-1.696;2023-03-07T16:12:39;10.00;99.90
22968;DHT22;11650;48.106;-1.696;2023-03-07T16:15:21;10.00;99.90
22968;DHT22;11650;48.106;-1.696;2023-03-07T16:17:48;10.00;99.90
22968;DHT22;11650;48.106;-1.696;2023-03-07T16:20:27;10.00;99.90
22968;DHT22;11650;48.106;-1.696;2023-03-07T16:22:54;10.00;99.90
22968;DHT22;11650;48.106;-1.696;2023-03-07T16:25:21;10.00;99.90
22968;DHT22;11650;48.106;-1.696;2023-03-07T16:27:50;9.90;99.90
22968;DHT22;11650;48.106;-1.696;2023-03-07T16:30:20;9.90;99.90
22968;DHT22;11650;48.106;-1.696;2023-03-07T16:32:47;9.90;99.90
22968;DHT22;11650;48.106;-1.696;2023-03-07T16:37:39;9.90;99.90
22968;DHT22;11650;48.106;-1.696;2023-03-07T16:40:05;9.90;99.90
22968;DHT22;11650;48.106;-1.696;2023-03-07T16:42:33;9.90;99.90
22968;DHT22;11650;48.106;-1.696;2023-03-07T16:44:58;9.80;99.90
22968;DHT22;11650;48.106;-1.696;2023-03-07T16:47:24;9.80;99.90
22968;DHT22;11650;48.106;-1.696;2023-03-07T16:49:50;9.70;99.90
22968;DHT22;11650;48.106;-1.696;2023-03-07T16:52:15;9.70;99.90
22968;DHT22;11650;48.106;-1.696;2023-03-07T16:54:41;9.70;99.90
22968;DHT22;11650;48.106;-1.696;2023-03-07T16:57:12;9.70;99.90
22968;DHT22;11650;48.106;-1.696;2023-03-07T16:59:42;9.70;99.90
22968;DHT22;11650;48.106;-1.696;2023-03-07T17:02:15;9.60;99.90
22968;DHT22;11650;48.106;-1.696;2023-03-07T17:04:41;9.60;99.90
22968;DHT22;11650;48.106;-1.696;2023-03-07T17:07:15;9.60;99.90
22968;DHT22;11650;48.106;-1.696;2023-03-07T17:09:42;9.60;99.90
22968;DHT22;11650;48.106;-1.696;2023-03-07T17:12:07;9.60;99.90
22968;DHT22;11650;48.106;-1.696;2023-03-07T17:14:34;9.60;99.90
22968;DHT22;11650;48.106;-1.696;2023-03-07T17:17:00;9.60;99.90
22968;DHT22;11650;48.106;-1.696;2023-03-07T17:19:28;9.60;99.90
22968;DHT22;11650;48.106;-1.696;2023-03-07T17:21:54;9.50;99.90
22968;DHT22;11650;48.106;-1.696;2023-03-07T17:24:21;9.50;99.90
22968;DHT22;11650;48.106;-1.696;2023-03-07T17:26:48;9.50;99.90
22968;DHT22;11650;48.106;-1.696;2023-03-07T17:29:25;9.50;99.90
22968;DHT22;11650;48.106;-1.696;2023-03-07T17:31:53;9.50;99.90
22968;DHT22;11650;48.106;-1.696;2023-03-07T17:34:24;9.50;99.90
22968;DHT22;11650;48.106;-1.696;2023-03-07T17:36:49;9.50;99.90
22968;DHT22;11650;48.106;-1.696;2023-03-07T17:39:15;9.40;99.90
22968;DHT22;11650;48.106;-1.696;2023-03-07T17:41:41;9.40;99.90
22968;DHT22;11650;48.106;-1.696;2023-03-07T17:44:06;9.40;99.90
22968;DHT22;11650;48.106;-1.696;2023-03-07T17:46:32;9.40;99.90
22968;DHT22;11650;48.106;-1.696;2023-03-07T17:48:58;9.40;99.90
22968;DHT22;11650;48.106;-1.696;2023-03-07T17:51:23;9.40;99.90
22968;DHT22;11650;48.106;-1.696;2023-03-07T17:53:49;9.40;99.90
22968;DHT22;11650;48.106;-1.696;2023-03-07T17:56:14;9.40;99.90
22968;DHT22;11650;48.106;-1.696;2023-03-07T17:58:40;9.30;99.90
22968;DHT22;11650;48.106;-1.696;2023-03-07T18:01:07;9.30;99.90
22968;DHT22;11650;48.106;-1.696;2023-03-07T18:03:36;9.30;99.90
22968;DHT22;11650;48.106;-1.696;2023-03-07T18:06:03;9.30;99.90
22968;DHT22;11650;48.106;-1.696;2023-03-07T18:08:29;9.30;99.90
22968;DHT22;11650;48.106;-1.696;2023-03-07T18:11:10;9.30;99.90
22968;DHT22;11650;48.106;-1.696;2023-03-07T18:13:36;9.20;99.90
22968;DHT22;11650;48.106;-1.696;2023-03-07T18:16:03;9.20;99.90
22968;DHT22;11650;48.106;-1.696;2023-03-07T18:18:34;9.20;99.90
22968;DHT22;11650;48.106;-1.696;2023-03-07T18:21:14;9.20;99.90
22968;DHT22;11650;48.106;-1.696;2023-03-07T18:23:41;9.20;99.90